Time;durP1;ratioP1;P1;durP2;ratioP2;P2;SDS_P1;SDS_P2;PMS_P1;PMS_P2;Temp;Humidity;BMP_temperature;BMP_pressure;BME280_temperature;BME280_humidity;BME280_pressure;Samples;Min_cycle;Max_cycle;Signal;HPM_P1;HPM_P2
2021/06/14 00:02:13;;;;;;;1.25;1.10;;;12.70;99.90;;;;;;5020384;28;20084;-66
2021/06/14 00:04:39;;;;;;;2.58;1.58;;;12.60;99.90;;;;;;5049899;28;20056;-67
2021/06/14 00:07:06;;;;;;;2.30;1.10;;;12.70;99.90;;;;;;5018701;28;20053;-66
2021/06/14 00:09:33;;;;;;;2.35;2.15;;;12.70;99.90;;;;;;5019226;28;20076;-65
2021/06/14 00:12:01;;;;;;;4.05;1.58;;;12.70;99.90;;;;;;5022046;28;20064;-68
2021/06/14 00:14:28;;;;;;;1.75;1.58;;;12.70;99.90;;;;;;5017984;28;20059;-67
2021/06/14 00:16:55;;;;;;;2.35;1.38;;;12.70;99.90;;;;;;5020308;28;20135;-66
2021/06/14 00:19:22;;;;;;;2.90;1.35;;;12.80;99.90;;;;;;5021267;28;20077;-66
2021/06/14 00:21:49;;;;;;;2.13;1.92;;;13.00;99.90;;;;;;5019114;28;20456;-68
2021/06/14 00:24:16;;;;;;;1.65;1.55;;;13.00;99.90;;;;;;5018823;28;20085;-66
2021/06/14 00:26:43;;;;;;;1.92;1.83;;;13.10;99.90;;;;;;5019645;28;20263;-66
2021/06/14 00:29:10;;;;;;;1.63;1.25;;;13.10;99.90;;;;;;5019293;28;20049;-69
2021/06/14 00:31:37;;;;;;;1.58;1.48;;;13.10;99.90;;;;;;5019437;28;20130;-66
2021/06/14 00:34:05;;;;;;;2.20;1.67;;;13.10;99.90;;;;;;5020781;28;20111;-65
2021/06/14 00:36:31;;;;;;;1.83;1.73;;;13.00;99.90;;;;;;5018909;28;20057;-66
2021/06/14 00:38:58;;;;;;;1.85;1.70;;;13.00;99.90;;;;;;5019580;28;20076;-66
2021/06/14 00:41:25;;;;;;;1.65;1.55;;;13.00;99.90;;;;;;5052337;28;20041;-67
2021/06/14 00:43:52;;;;;;;2.95;2.35;;;13.10;99.90;;;;;;5020721;28;20151;-66
2021/06/14 00:46:20;;;;;;;1.67;1.58;;;13.00;99.90;;;;;;5020129;28;20057;-66
2021/06/14 00:48:47;;;;;;;3.05;2.03;;;13.00;99.90;;;;;;5022222;28;20057;-66
2021/06/14 00:51:15;;;;;;;1.98;1.80;;;13.00;99.90;;;;;;5033940;28;20049;-69
2021/06/14 00:53:43;;;;;;;5.75;3.08;;;13.00;99.90;;;;;;5047983;28;20057;-66
2021/06/14 00:56:15;;;;;;;1.90;1.80;;;13.00;99.90;;;;;;5015894;28;21008;-67
2021/06/14 00:58:46;;;;;;;2.55;1.85;;;13.00;99.90;;;;;;5017161;28;20116;-66
2021/06/14 01:01:14;;;;;;;2.03;1.88;;;13.00;99.90;;;;;;5016889;28;21525;-66
2021/06/14 01:03:41;;;;;;;1.95;1.65;;;12.90;99.90;;;;;;5033440;28;20145;-68
2021/06/14 01:06:12;;;;;;;1.50;1.40;;;12.90;99.90;;;;;;5019084;28;20049;-68
2021/06/14 01:08:45;;;;;;;1.83;1.70;;;12.90;99.90;;;;;;5050052;28;20502;-66
2021/06/14 01:11:18;;;;;;;2.97;1.38;;;12.90;99.90;;;;;;5016393;28;20048;-67
2021/06/14 01:13:59;;;;;;;1.92;1.83;;;12.80;99.90;;;;;;5020503;28;20057;-65
2021/06/14 01:16:36;;;;;;;1.98;1.77;;;12.80;99.90;;;;;;5017254;28;20061;-66
2021/06/14 01:19:26;;;;;;;1.95;1.75;;;12.80;99.90;;;;;;5019448;28;20072;-66
2021/06/14 01:22:20;;;;;;;1.92;1.77;;;12.70;99.90;;;;;;5033522;28;20053;-68
2021/06/14 01:25:01;;;;;;;3.70;1.90;;;12.80;99.90;;;;;;5018278;28;20052;-67
2021/06/14 01:27:37;;;;;;;2.88;2.10;;;12.80;99.90;;;;;;5018363;28;20071;-68
2021/06/14 01:30:12;;;;;;;2.38;1.65;;;12.80;99.90;;;;;;5018093;28;20107;-66
2021/06/14 01:32:41;;;;;;;2.33;1.48;;;12.80;99.90;;;;;;5016301;28;20208;-65
2021/06/14 01:35:11;;;;;;;2.03;1.83;;;12.80;99.90;;;;;;5018303;28;20050;-67
2021/06/14 01:37:44;;;;;;;3.63;2.80;;;12.70;99.90;;;;;;5017817;28;20038;-65
2021/06/14 01:40:13;;;;;;;5.30;2.13;;;12.70;99.90;;;;;;5033825;28;21410;-65
2021/06/14 01:42:42;;;;;;;2.23;2.00;;;12.70;99.90;;;;;;5014769;28;20064;-66
2021/06/14 01:45:09;;;;;;;2.47;2.28;;;12.70;99.90;;;;;;5017701;28;20129;-68
2021/06/14 01:47:37;;;;;;;1.75;1.60;;;12.70;99.90;;;;;;5019947;28;21535;-67
2021/06/14 01:50:05;;;;;;;3.53;2.03;;;12.70;99.90;;;;;;5017776;28;20049;-67
2021/06/14 01:52:33;;;;;;;2.38;2.15;;;12.70;99.90;;;;;;5018902;28;20123;-65
2021/06/14 01:55:02;;;;;;;3.22;2.28;;;12.70;99.90;;;;;;5016451;28;20057;-69
2021/06/14 01:57:40;;;;;;;2.75;2.20;;;12.60;99.90;;;;;;5045380;28;20150;-68
2021/06/14 02:00:21;;;;;;;1.90;1.80;;;12.70;99.90;;;;;;5046928;28;20219;-68
2021/06/14 02:03:06;;;;;;;2.72;2.53;;;12.70;99.90;;;;;;5032733;28;20060;-68
2021/06/14 02:05:43;;;;;;;8.98;2.75;;;12.70;99.90;;;;;;5014443;28;20049;-66
2021/06/14 02:08:13;;;;;;;2.90;2.67;;;12.70;99.90;;;;;;5051694;28;20045;-68
2021/06/14 02:10:40;;;;;;;2.78;2.10;;;12.70;99.90;;;;;;5018632;28;20033;-67
2021/06/14 02:13:10;;;;;;;2.40;2.20;;;12.70;99.90;;;;;;5019647;28;20176;-69
2021/06/14 02:15:37;;;;;;;2.55;2.00;;;12.70;99.90;;;;;;5019720;28;20583;-66
2021/06/14 02:18:09;;;;;;;2.40;2.20;;;12.70;99.90;;;;;;5019283;28;20160;-66
2021/06/14 02:20:41;;;;;;;3.05;2.72;;;12.60;99.90;;;;;;5016247;28;20294;-68
2021/06/14 02:23:11;;;;;;;2.47;2.28;;;12.70;99.90;;;;;;5019912;28;20534;-66
2021/06/14 02:25:38;;;;;;;;;;;12.60;99.90;;;;;;5051534;28;20080;-68
2021/06/14 02:28:06;;;;;;;4.50;2.78;;;12.60;99.90;;;;;;5015482;28;19932;-68
2021/06/14 02:30:33;;;;;;;3.28;2.80;;;12.60;99.90;;;;;;5014865;28;20123;-66
2021/06/14 02:33:04;;;;;;;2.58;2.38;;;12.70;99.90;;;;;;5020845;28;20041;-67
2021/06/14 02:35:31;;;;;;;4.38;2.72;;;12.60;99.90;;;;;;5018955;28;20499;-68
2021/06/14 02:38:02;;;;;;;3.97;2.13;;;12.60;99.90;;;;;;5018885;28;20534;-65
2021/06/14 02:40:31;;;;;;;3.33;2.28;;;12.60;99.90;;;;;;5032200;28;20059;-66
2021/06/14 02:43:05;;;;;;;3.35;2.45;;;12.60;99.90;;;;;;5019511;28;20049;-66
2021/06/14 02:45:34;;;;;;;6.18;4.03;;;12.60;99.90;;;;;;5019168;28;20887;-66
2021/06/14 02:48:10;;;;;;;3.20;2.53;;;12.70;99.90;;;;;;5020500;28;20580;-66
2021/06/14 02:50:39;;;;;;;2.65;2.45;;;12.70;99.90;;;;;;5016792;28;20045;-68
2021/06/14 02:53:14;;;;;;;5.55;2.70;;;12.70;99.90;;;;;;5052076;28;20041;-67
2021/06/14 02:55:54;;;;;;;4.00;3.47;;;12.70;99.90;;;;;;5017379;28;20136;-68
2021/06/14 02:58:28;;;;;;;3.35;2.83;;;12.70;99.90;;;;;;5017176;28;20415;-68
2021/06/14 03:00:57;;;;;;;5.30;2.85;;;12.60;99.90;;;;;;5019616;28;20045;-68
2021/06/14 03:03:25;;;;;;;3.15;2.88;;;12.70;99.90;;;;;;5018907;28;20084;-65
2021/06/14 03:05:54;;;;;;;3.95;2.67;;;12.70;99.90;;;;;;5018628;28;20059;-67
2021/06/14 03:08:23;;;;;;;3.47;2.50;;;12.70;99.90;;;;;;5018775;28;20068;-66
2021/06/14 03:10:50;;;;;;;2.83;2.63;;;12.70;99.90;;;;;;5016522;28;20666;-68
2021/06/14 03:13:18;;;;;;;2.63;2.42;;;12.80;99.90;;;;;;5050843;28;20171;-67
2021/06/14 03:15:45;;;;;;;4.35;2.75;;;12.80;99.90;;;;;;5018598;28;20045;-65
2021/06/14 03:18:13;;;;;;;3.85;2.80;;;12.90;99.90;;;;;;5019015;28;20124;-67
2021/06/14 03:20:41;;;;;;;2.90;2.55;;;12.90;99.90;;;;;;5015290;28;20088;-65
2021/06/14 03:23:09;;;;;;;2.80;2.58;;;12.90;99.90;;;;;;5022957;28;20197;-67
2021/06/14 03:25:37;;;;;;;4.68;3.58;;;12.90;99.90;;;;;;5050007;28;21446;-68
2021/06/14 03:28:06;;;;;;;3.13;2.92;;;13.00;99.90;;;;;;5019417;28;20053;-66
2021/06/14 03:30:34;;;;;;;2.28;2.15;;;13.00;99.90;;;;;;5016446;28;20068;-66
2021/06/14 03:33:05;;;;;;;3.65;3.33;;;13.00;99.90;;;;;;5019743;28;20069;-69
2021/06/14 03:35:33;;;;;;;3.92;3.55;;;13.00;99.90;;;;;;5018424;28;20053;-69
2021/06/14 03:38:00;;;;;;;4.35;2.92;;;13.10;99.90;;;;;;5019631;28;20135;-66
2021/06/14 03:40:29;;;;;;;3.42;2.70;;;13.20;99.90;;;;;;5015081;28;20045;-68
2021/06/14 03:42:59;;;;;;;3.10;2.40;;;13.20;99.90;;;;;;5019547;28;20143;-64
2021/06/14 03:45:26;;;;;;;3.00;2.75;;;13.20;99.90;;;;;;5017496;28;20052;-66
2021/06/14 03:47:53;;;;;;;3.40;2.13;;;13.30;99.90;;;;;;5019599;28;20135;-69
2021/06/14 03:50:20;;;;;;;4.45;2.78;;;13.30;99.90;;;;;;5015483;28;20123;-65
2021/06/14 03:52:47;;;;;;;4.32;2.95;;;13.40;99.90;;;;;;5018394;28;20170;-65
2021/06/14 03:55:14;;;;;;;3.53;3.25;;;13.40;99.90;;;;;;5017516;28;20037;-66
2021/06/14 03:57:41;;;;;;;3.13;2.22;;;13.60;99.90;;;;;;5019331;28;20096;-68
2021/06/14 04:00:12;;;;;;;2.50;2.30;;;13.60;99.90;;;;;;5032727;28;20060;-67
2021/06/14 04:02:43;;;;;;;7.88;2.92;;;13.70;99.90;;;;;;5048984;28;20049;-66
2021/06/14 04:05:20;;;;;;;3.13;2.83;;;13.80;99.90;;;;;;5016665;28;20072;-66
2021/06/14 04:08:00;;;;;;;3.28;2.95;;;13.80;99.90;;;;;;5019102;28;20857;-65
2021/06/14 04:10:28;;;;;;;2.03;1.90;;;13.90;99.90;;;;;;5015703;28;20079;-67
2021/06/14 04:12:55;;;;;;;5.88;2.75;;;13.90;99.90;;;;;;5019239;28;20053;-67
2021/06/14 04:15:22;;;;;;;2.58;2.38;;;14.00;99.90;;;;;;5017734;28;20538;-69
2021/06/14 04:17:49;;;;;;;3.33;2.90;;;14.10;99.90;;;;;;5016232;28;20073;-67
2021/06/14 04:20:17;;;;;;;3.83;2.40;;;14.10;99.90;;;;;;5017499;28;20911;-66
2021/06/14 04:22:46;;;;;;;2.92;2.70;;;14.20;99.90;;;;;;5014048;28;20049;-67
2021/06/14 04:25:13;;;;;;;3.72;1.83;;;14.40;99.90;;;;;;5018238;28;21550;-67
2021/06/14 04:27:40;;;;;;;5.57;2.17;;;14.40;99.90;;;;;;5016195;28;20041;-68
2021/06/14 04:30:08;;;;;;;4.03;2.58;;;14.50;99.90;;;;;;5018045;28;20081;-65
2021/06/14 04:32:35;;;;;;;2.95;2.67;;;14.60;99.90;;;;;;5014309;28;20060;-68
2021/06/14 04:35:02;;;;;;;2.28;2.08;;;14.60;99.90;;;;;;5018364;28;20060;-68
2021/06/14 04:37:29;;;;;;;3.42;2.65;;;14.60;99.90;;;;;;5015670;28;20053;-69
2021/06/14 04:39:56;;;;;;;4.68;2.38;;;14.70;99.90;;;;;;5018961;28;20402;-65
2021/06/14 04:42:26;;;;;;;1.67;1.58;;;14.80;99.90;;;;;;5014209;28;20060;-68
2021/06/14 04:44:53;;;;;;;2.03;1.80;;;14.80;99.90;;;;;;5018467;28;20052;-68
2021/06/14 04:47:21;;;;;;;2.25;2.05;;;14.90;99.90;;;;;;5019257;28;20100;-67
2021/06/14 04:49:48;;;;;;;4.72;2.22;;;15.00;99.90;;;;;;5021183;28;20049;-66
2021/06/14 04:52:15;;;;;;;2.72;2.22;;;15.00;99.90;;;;;;5017693;28;20060;-67
2021/06/14 04:54:42;;;;;;;2.95;2.13;;;15.10;99.90;;;;;;5021511;28;20574;-67
2021/06/14 04:57:09;;;;;;;3.22;2.10;;;15.10;99.90;;;;;;5020147;28;20821;-68
2021/06/14 04:59:36;;;;;;;3.20;2.05;;;15.20;99.90;;;;;;5021672;28;20170;-67
2021/06/14 05:02:03;;;;;;;3.08;2.10;;;15.20;99.90;;;;;;5017388;28;20073;-69
2021/06/14 05:04:31;;;;;;;3.10;1.92;;;15.30;99.90;;;;;;5017993;28;20072;-65
2021/06/14 05:06:58;;;;;;;4.88;2.58;;;15.40;99.90;;;;;;5015297;28;20100;-69
2021/06/14 05:09:25;;;;;;;2.70;2.13;;;15.40;99.90;;;;;;5017777;28;20750;-65
2021/06/14 05:11:51;;;;;;;4.45;1.77;;;15.50;99.90;;;;;;5019163;28;20041;-69
2021/06/14 05:14:18;;;;;;;4.50;2.17;;;15.50;99.90;;;;;;5018953;28;20084;-65
2021/06/14 05:16:45;;;;;;;2.45;2.00;;;15.50;99.90;;;;;;5019417;28;20129;-67
2021/06/14 05:19:12;;;;;;;2.95;2.55;;;15.60;99.90;;;;;;5020378;28;20139;-68
2021/06/14 05:21:39;;;;;;;4.25;1.85;;;15.60;99.90;;;;;;5017753;28;20076;-65
2021/06/14 05:24:06;;;;;;;4.93;2.45;;;15.70;99.90;;;;;;5016151;28;21966;-68
2021/06/14 05:26:33;;;;;;;2.42;2.22;;;15.80;99.90;;;;;;5015898;28;20542;-65
2021/06/14 05:29:00;;;;;;;4.55;3.55;;;15.80;99.90;;;;;;5020205;28;20095;-65
2021/06/14 05:31:27;;;;;;;1.80;1.70;;;15.90;99.90;;;;;;5017687;28;20053;-66
2021/06/14 05:33:54;;;;;;;2.78;2.35;;;16.00;99.90;;;;;;5019602;28;21076;-67
2021/06/14 05:36:21;;;;;;;3.13;1.88;;;16.00;99.90;;;;;;5016700;28;20057;-66
2021/06/14 05:38:48;;;;;;;2.55;2.25;;;15.90;99.90;;;;;;5020716;28;20490;-68
2021/06/14 05:41:15;;;;;;;9.10;3.05;;;16.00;99.90;;;;;;5017006;28;20049;-66
2021/06/14 05:43:42;;;;;;;2.67;2.17;;;16.00;99.90;;;;;;5020793;28;20049;-65
2021/06/14 05:46:09;;;;;;;4.53;2.33;;;15.90;99.90;;;;;;5018314;28;20068;-67
2021/06/14 05:48:36;;;;;;;5.15;2.60;;;16.00;99.90;;;;;;5017409;28;20131;-66
2021/06/14 05:51:04;;;;;;;2.13;1.88;;;16.00;99.90;;;;;;5018091;28;20178;-65
2021/06/14 05:53:32;;;;;;;3.35;2.65;;;16.10;99.90;;;;;;5016867;28;20138;-65
2021/06/14 05:55:58;;;;;;;5.05;2.53;;;16.10;99.90;;;;;;5017788;28;20095;-69
2021/06/14 05:58:25;;;;;;;4.28;2.50;;;16.20;99.90;;;;;;5014102;28;20140;-65
2021/06/14 06:00:52;;;;;;;3.70;2.33;;;16.30;99.90;;;;;;5017456;28;20077;-65
2021/06/14 06:03:19;;;;;;;4.32;2.70;;;16.30;99.90;;;;;;5016557;28;20073;-67
2021/06/14 06:05:46;;;;;;;5.57;2.42;;;16.40;99.90;;;;;;4989667;28;20144;-65
2021/06/14 06:08:13;;;;;;;3.85;2.58;;;16.40;99.90;;;;;;1003042;28;10002096;-65
2021/06/14 06:10:40;;;;;;;3.33;2.55;;;16.40;99.90;;;;;;5018895;28;20046;-68
2021/06/14 06:13:07;;;;;;;4.10;2.13;;;16.40;99.90;;;;;;5017413;28;20084;-66
2021/06/14 06:15:34;;;;;;;3.83;2.28;;;16.50;99.90;;;;;;5018117;28;20072;-66
2021/06/14 06:18:01;;;;;;;4.05;2.47;;;16.50;99.90;;;;;;5016942;28;20718;-67
2021/06/14 06:20:29;;;;;;;5.25;3.60;;;16.50;99.90;;;;;;5017306;28;20053;-65
2021/06/14 06:22:56;;;;;;;3.40;3.05;;;16.60;99.90;;;;;;5013689;28;20099;-65
2021/06/14 06:25:24;;;;;;;3.80;2.67;;;16.60;99.90;;;;;;5015400;28;20162;-68
2021/06/14 06:27:51;;;;;;;6.28;4.15;;;16.60;99.90;;;;;;5017966;28;20616;-66
2021/06/14 06:30:21;;;;;;;4.45;2.88;;;16.70;99.90;;;;;;5015110;28;20045;-67
2021/06/14 06:32:48;;;;;;;;;;;16.70;99.90;;;;;;5018658;28;20104;-68
2021/06/14 06:35:16;;;;;;;4.13;3.17;;;16.70;99.90;;;;;;5017157;28;19995;-68
2021/06/14 06:37:44;;;;;;;5.97;3.13;;;16.80;99.90;;;;;;5017466;28;20046;-68
2021/06/14 06:40:12;;;;;;;4.53;3.42;;;16.90;99.90;;;;;;5017315;28;20511;-68
2021/06/14 06:42:41;;;;;;;11.13;3.53;;;16.90;99.90;;;;;;5016474;28;20140;-69
2021/06/14 06:45:09;;;;;;;6.28;2.95;;;17.00;99.90;;;;;;5017876;28;20518;-67
2021/06/14 06:47:37;;;;;;;5.03;3.13;;;17.00;99.90;;;;;;5020339;28;20123;-66
2021/06/14 06:50:06;;;;;;;9.00;2.80;;;17.00;99.90;;;;;;5003280;28;20099;-68
2021/06/14 06:52:35;;;;;;;6.55;2.97;;;17.00;99.90;;;;;;5011498;28;20041;-66
2021/06/14 06:55:11;;;;;;;4.85;3.13;;;17.00;99.90;;;;;;5013763;28;20107;-65
2021/06/14 06:57:39;;;;;;;5.72;3.13;;;17.10;99.90;;;;;;5017569;28;20135;-66
2021/06/14 07:00:09;;;;;;;7.45;3.08;;;17.10;99.90;;;;;;5014217;28;20053;-68
2021/06/14 07:02:36;;;;;;;5.70;3.83;;;17.20;99.90;;;;;;5016365;28;20165;-67
2021/06/14 07:05:04;;;;;;;4.05;3.28;;;17.20;99.90;;;;;;5015505;28;20119;-68
2021/06/14 07:07:31;;;;;;;10.05;4.05;;;17.20;99.90;;;;;;5015443;28;20481;-66
2021/06/14 07:10:05;;;;;;;;;;;17.30;99.90;;;;;;5015931;28;21137;-66
2021/06/14 07:12:51;;;;;;;6.93;3.85;;;17.30;99.90;;;;;;5014667;28;19928;-65
2021/06/14 07:15:18;;;;;;;4.05;3.28;;;17.40;99.90;;;;;;5015568;28;20053;-65
2021/06/14 07:17:45;;;;;;;8.02;3.30;;;17.50;99.90;;;;;;5016665;28;20049;-68
2021/06/14 07:20:13;;;;;;;8.18;4.00;;;17.50;99.90;;;;;;5016406;28;20135;-67
2021/06/14 07:22:41;;;;;;;5.00;3.95;;;17.60;99.90;;;;;;5014944;28;20115;-67
2021/06/14 07:25:09;;;;;;;4.32;2.22;;;17.70;99.90;;;;;;5015598;28;20053;-68
2021/06/14 07:27:37;;;;;;;5.57;3.45;;;17.80;99.90;;;;;;5016014;28;20344;-67
2021/06/14 07:30:19;;;;;;;6.30;3.50;;;17.90;99.90;;;;;;5012826;28;20114;-67
2021/06/14 07:32:46;;;;;;;5.22;4.20;;;18.00;99.90;;;;;;5015710;28;20053;-67
2021/06/14 07:35:13;;;;;;;7.78;4.47;;;18.00;99.90;;;;;;5012182;28;20064;-67
2021/06/14 07:37:40;;;;;;;8.90;3.85;;;17.90;99.90;;;;;;5014725;28;20831;-65
2021/06/14 07:40:08;;;;;;;5.28;3.42;;;17.90;99.90;;;;;;5012937;28;20599;-65
2021/06/14 07:42:35;;;;;;;9.60;3.92;;;17.80;99.90;;;;;;5016468;28;20292;-65
2021/06/14 07:45:03;;;;;;;7.38;4.45;;;17.90;99.90;;;;;;5015926;28;20110;-66
2021/06/14 07:47:30;;;;;;;5.88;4.45;;;18.00;99.90;;;;;;5017599;28;20460;-66
2021/06/14 07:49:57;;;;;;;7.45;3.38;;;18.00;99.90;;;;;;5016581;28;20057;-65
2021/06/14 07:52:24;;;;;;;7.47;3.83;;;18.20;99.90;;;;;;5014117;28;21619;-66
2021/06/14 07:54:53;;;;;;;3.45;1.60;;;18.20;99.90;;;;;;5012491;28;20410;-68
2021/06/14 07:57:20;;;;;;;2.28;1.42;;;18.40;99.90;;;;;;5017640;28;20765;-66
2021/06/14 07:59:47;;;;;;;5.53;1.55;;;18.50;99.60;;;;;;5015748;28;20049;-67
2021/06/14 08:02:14;;;;;;;4.95;1.67;;;18.70;98.50;;;;;;5013748;28;20156;-68
2021/06/14 08:04:41;;;;;;;1.98;1.63;;;18.80;98.40;;;;;;5003922;28;20984;-68
2021/06/14 08:07:08;;;;;;;3.53;2.10;;;18.80;97.20;;;;;;5013350;28;21414;-66
2021/06/14 08:09:35;;;;;;;1.67;1.20;;;18.90;97.10;;;;;;5013081;28;20060;-65
2021/06/14 08:12:04;;;;;;;2.30;1.45;;;19.00;96.10;;;;;;5015191;28;20161;-69
2021/06/14 08:14:32;;;;;;;1.80;1.42;;;19.00;96.30;;;;;;5012089;28;20675;-66
2021/06/14 08:17:01;;;;;;;4.18;2.42;;;19.10;96.30;;;;;;5014499;28;20049;-66
2021/06/14 08:19:36;;;;;;;2.17;1.97;;;19.20;95.40;;;;;;5012986;28;20060;-66
2021/06/14 08:22:32;;;;;;;2.30;1.70;;;19.30;95.90;;;;;;5015356;28;20152;-69
2021/06/14 08:25:06;;;;;;;1.98;1.48;;;19.40;95.60;;;;;;5017040;28;20132;-67
2021/06/14 08:27:44;;;;;;;4.35;2.15;;;19.40;95.10;;;;;;5020185;28;20108;-66
2021/06/14 08:30:20;;;;;;;3.17;1.60;;;19.50;96.10;;;;;;5017824;28;20146;-67
2021/06/14 08:32:48;;;;;;;1.63;1.15;;;19.50;94.40;;;;;;5017999;28;20129;-65
2021/06/14 08:35:18;;;;;;;4.07;1.80;;;19.50;93.70;;;;;;5018395;28;20122;-66
2021/06/14 08:37:47;;;;;;;2.80;1.37;;;19.60;94.70;;;;;;5019543;28;20077;-67
2021/06/14 08:40:18;;;;;;;3.58;2.00;;;19.70;93.40;;;;;;5017728;28;20353;-67
2021/06/14 08:42:45;;;;;;;4.82;1.92;;;19.80;94.00;;;;;;5015009;28;20080;-69
2021/06/14 08:45:13;;;;;;;3.10;1.70;;;19.90;94.90;;;;;;5017548;28;20064;-66
2021/06/14 08:47:42;;;;;;;3.60;1.77;;;19.90;94.40;;;;;;5008079;28;20050;-65
2021/06/14 08:50:11;;;;;;;3.95;1.60;;;20.00;93.20;;;;;;5012658;28;20095;-67
2021/06/14 08:52:39;;;;;;;6.30;1.77;;;19.90;92.80;;;;;;5012667;28;20049;-65
2021/06/14 08:55:08;;;;;;;3.80;1.42;;;19.90;93.30;;;;;;5012857;28;20072;-66
2021/06/14 08:57:35;;;;;;;2.15;1.52;;;19.90;93.00;;;;;;5018158;28;20235;-67
2021/06/14 09:00:09;;;;;;;1.45;1.35;;;19.90;93.30;;;;;;5017128;28;20049;-65
2021/06/14 09:02:36;;;;;;;4.05;1.52;;;20.00;92.90;;;;;;5016006;28;20057;-65
2021/06/14 09:05:06;;;;;;;5.05;1.67;;;20.10;93.40;;;;;;5017423;28;20048;-68
2021/06/14 09:07:33;;;;;;;5.47;1.67;;;20.00;92.70;;;;;;5018529;28;20129;-66
2021/06/14 09:10:01;;;;;;;3.63;1.85;;;20.00;92.80;;;;;;5018897;28;20140;-66
2021/06/14 09:12:41;;;;;;;4.65;2.10;;;20.00;92.70;;;;;;5016389;28;20357;-68
2021/06/14 09:15:11;;;;;;;2.67;1.70;;;20.10;93.30;;;;;;5019634;28;20056;-68
2021/06/14 09:17:38;;;;;;;3.67;2.00;;;20.00;93.00;;;;;;5018492;28;20619;-67
2021/06/14 09:20:14;;;;;;;3.55;2.75;;;19.90;93.50;;;;;;5021068;28;20509;-65
2021/06/14 09:22:41;;;;;;;4.50;2.90;;;19.90;94.00;;;;;;5015971;28;20056;-65
2021/06/14 09:25:14;;;;;;;5.43;2.30;;;19.90;94.40;;;;;;5018958;28;20073;-67
2021/06/14 09:27:50;;;;;;;4.63;2.20;;;20.00;94.80;;;;;;5018448;28;20053;-65
2021/06/14 09:30:20;;;;;;;3.53;2.05;;;20.10;94.60;;;;;;5015622;28;20072;-66
2021/06/14 09:32:57;;;;;;;3.05;2.13;;;20.00;95.20;;;;;;5018547;28;20045;-66
2021/06/14 09:35:26;;;;;;;8.23;2.45;;;20.10;95.70;;;;;;5018200;28;20077;-66
2021/06/14 09:38:00;;;;;;;4.55;2.67;;;20.10;96.10;;;;;;5015716;28;20180;-65
2021/06/14 09:40:50;;;;;;;6.38;3.75;;;20.00;96.00;;;;;;5012618;28;20081;-67
2021/06/14 09:43:36;;;;;;;2.93;1.80;;;20.00;96.50;;;;;;5017346;28;20172;-67
2021/06/14 09:46:25;;;;;;;5.47;2.03;;;20.10;96.80;;;;;;5018160;28;20068;-66
2021/06/14 09:48:52;;;;;;;4.43;1.83;;;20.10;96.70;;;;;;5017201;28;20666;-67
2021/06/14 09:51:20;;;;;;;4.78;2.00;;;20.20;97.30;;;;;;5017258;28;20060;-67
2021/06/14 09:53:55;;;;;;;3.17;2.42;;;20.30;97.00;;;;;;5016300;28;21319;-66
2021/06/14 09:56:29;;;;;;;11.10;3.38;;;20.30;97.30;;;;;;5013639;28;20079;-66
2021/06/14 09:58:57;;;;;;;2.97;1.58;;;20.20;98.20;;;;;;5013924;28;20212;-67
2021/06/14 10:01:36;;;;;;;5.72;2.75;;;20.30;98.80;;;;;;5014456;28;20054;-65
2021/06/14 10:04:11;;;;;;;3.17;2.58;;;20.30;98.90;;;;;;5016607;28;20049;-66
2021/06/14 10:06:43;;;;;;;4.53;2.20;;;20.30;99.10;;;;;;5013328;28;20132;-67
2021/06/14 10:09:15;;;;;;;3.00;2.00;;;20.30;99.90;;;;;;5015044;28;20054;-67
2021/06/14 10:11:45;;;;;;;6.75;2.50;;;20.30;99.80;;;;;;5016156;28;20053;-67
2021/06/14 10:14:15;;;;;;;4.90;2.42;;;20.30;99.90;;;;;;5017091;28;20045;-66
2021/06/14 10:16:44;;;;;;;4.15;2.72;;;20.40;99.90;;;;;;5014670;28;20053;-66
2021/06/14 10:19:14;;;;;;;4.65;2.50;;;20.40;99.90;;;;;;5018077;28;20143;-67
2021/06/14 10:21:50;;;;;;;3.17;2.47;;;20.50;99.90;;;;;;5017379;28;20103;-67
2021/06/14 10:24:20;;;;;;;8.60;3.35;;;20.50;99.90;;;;;;5018090;28;20076;-65
2021/06/14 10:26:50;;;;;;;5.60;3.35;;;20.50;99.90;;;;;;5047835;28;20424;-67
2021/06/14 10:29:18;;;;;;;4.25;2.40;;;20.50;99.90;;;;;;5018230;28;20069;-67
2021/06/14 10:31:48;;;;;;;5.57;3.42;;;20.40;99.90;;;;;;5017347;28;20399;-66
2021/06/14 10:34:16;;;;;;;6.22;3.80;;;20.60;99.90;;;;;;5018294;28;20077;-68
2021/06/14 10:36:53;;;;;;;6.82;3.63;;;20.70;99.90;;;;;;5015548;28;20167;-66
2021/06/14 10:39:23;;;;;;;7.40;3.40;;;20.90;99.90;;;;;;5019224;28;20076;-66
2021/06/14 10:41:52;;;;;;;4.80;3.15;;;20.90;99.90;;;;;;5016668;28;20081;-66
2021/06/14 10:44:20;;;;;;;7.63;3.03;;;21.00;99.90;;;;;;5016577;28;20149;-67
2021/06/14 10:46:50;;;;;;;8.00;3.72;;;21.10;99.90;;;;;;5016753;28;20442;-69
2021/06/14 10:49:18;;;;;;;4.70;3.47;;;21.30;99.90;;;;;;5018402;28;20041;-68
2021/06/14 10:51:56;;;;;;;11.15;3.65;;;21.30;99.90;;;;;;5046520;28;20107;-67
2021/06/14 10:54:23;;;;;;;7.25;2.95;;;21.30;99.90;;;;;;5013109;28;20069;-67
2021/06/14 10:56:50;;;;;;;20.08;4.93;;;21.00;99.90;;;;;;5013743;28;20091;-66
2021/06/14 10:59:18;;;;;;;8.98;3.65;;;21.10;99.90;;;;;;5012638;28;20045;-68
2021/06/14 11:01:47;;;;;;;7.93;3.92;;;20.90;99.90;;;;;;5011734;28;20049;-68
2021/06/14 11:04:26;;;;;;;5.77;3.47;;;20.90;99.90;;;;;;5011803;28;20041;-66
2021/06/14 11:06:55;;;;;;;8.32;4.22;;;21.00;99.90;;;;;;5011475;28;20290;-67
2021/06/14 11:09:23;;;;;;;3.85;3.13;;;21.20;99.90;;;;;;5015831;28;20093;-67
2021/06/14 11:11:56;;;;;;;4.40;3.10;;;21.20;99.90;;;;;;5013052;28;20049;-68
2021/06/14 11:14:40;;;;;;;8.05;2.92;;;21.40;99.90;;;;;;5012948;28;20061;-67
2021/06/14 11:17:32;;;;;;;5.20;3.20;;;21.40;99.90;;;;;;5014318;28;20278;-68
2021/06/14 11:19:59;;;;;;;6.35;5.15;;;21.40;99.90;;;;;;5016521;28;20049;-65
2021/06/14 11:22:37;;;;;;;9.27;5.10;;;21.30;99.90;;;;;;5013643;28;20103;-67
2021/06/14 11:25:18;;;;;;;8.10;4.13;;;21.40;99.90;;;;;;5015618;28;20811;-66
2021/06/14 11:27:45;;;;;;;5.82;3.58;;;21.60;99.90;;;;;;5016597;28;20057;-68
2021/06/14 11:30:15;;;;;;;3.17;2.72;;;21.80;99.90;;;;;;5015162;28;20045;-66
2021/06/14 11:32:42;;;;;;;7.60;4.60;;;22.00;99.90;;;;;;5013603;28;20053;-68
2021/06/14 11:35:09;;;;;;;7.50;2.95;;;22.10;99.90;;;;;;5016045;28;20053;-66
2021/06/14 11:37:38;;;;;;;6.00;3.70;;;21.90;99.90;;;;;;5015943;28;21395;-68
2021/06/14 11:40:07;;;;;;;5.70;4.00;;;22.00;99.90;;;;;;5015590;28;20084;-68
2021/06/14 11:42:47;;;;;;;6.55;2.92;;;21.90;99.90;;;;;;5014710;28;20132;-66
2021/06/14 11:45:27;;;;;;;4.83;4.17;;;21.80;99.90;;;;;;5015412;28;20052;-68
2021/06/14 11:47:56;;;;;;;6.88;3.45;;;21.80;99.90;;;;;;5016166;28;20529;-66
2021/06/14 11:50:26;;;;;;;7.72;4.95;;;21.90;99.90;;;;;;5014469;28;20076;-67
2021/06/14 11:53:11;;;;;;;7.63;3.60;;;22.00;99.90;;;;;;5015231;28;20857;-66
2021/06/14 11:55:41;;;;;;;6.20;3.70;;;21.90;99.90;;;;;;5015196;28;20080;-68
2021/06/14 11:58:10;;;;;;;8.05;3.67;;;22.00;99.90;;;;;;5016760;28;20045;-68
2021/06/14 12:00:44;;;;;;;4.53;3.35;;;21.80;99.90;;;;;;5012956;28;20055;-66
2021/06/14 12:03:23;;;;;;;5.13;3.15;;;21.90;99.90;;;;;;5013623;28;20652;-68
2021/06/14 12:05:52;;;;;;;10.32;4.70;;;21.80;99.90;;;;;;5011865;28;20049;-68
2021/06/14 12:08:23;;;;;;;5.65;3.53;;;22.00;99.90;;;;;;5011949;28;20144;-67
2021/06/14 12:10:53;;;;;;;16.88;6.05;;;22.20;99.90;;;;;;5013590;28;20442;-68
2021/06/14 12:13:28;;;;;;;4.40;4.00;;;22.20;99.90;;;;;;5015207;28;20060;-68
2021/06/14 12:15:57;;;;;;;5.50;2.90;;;22.10;99.90;;;;;;5013988;28;20049;-67
2021/06/14 12:18:28;;;;;;;5.38;4.18;;;21.90;99.90;;;;;;5012421;28;20503;-66
2021/06/14 12:20:57;;;;;;;4.90;3.38;;;21.90;99.90;;;;;;5014245;28;20049;-66
2021/06/14 12:23:34;;;;;;;7.07;4.25;;;21.90;99.90;;;;;;5014360;28;20127;-66
2021/06/14 12:26:11;;;;;;;5.13;3.35;;;22.20;99.90;;;;;;5014746;28;20049;-69
2021/06/14 12:28:40;;;;;;;5.50;2.72;;;22.50;99.90;;;;;;5013025;28;20045;-67
2021/06/14 12:31:12;;;;;;;4.68;3.25;;;22.70;99.90;;;;;;5015512;28;20075;-68
2021/06/14 12:33:42;;;;;;;7.13;3.58;;;22.60;99.90;;;;;;5013989;28;20076;-69
2021/06/14 12:36:12;;;;;;;4.53;2.70;;;22.70;99.90;;;;;;5013382;28;20045;-69
2021/06/14 12:38:53;;;;;;;3.28;2.83;;;22.80;99.90;;;;;;5012522;28;20057;-69
2021/06/14 12:41:21;;;;;;;5.30;3.30;;;22.60;99.90;;;;;;5030055;28;20129;-67
2021/06/14 12:43:49;;;;;;;3.72;2.92;;;22.70;99.90;;;;;;5013582;28;20478;-65
2021/06/14 12:46:34;;;;;;;6.85;3.10;;;22.50;99.90;;;;;;5013840;28;20495;-66
2021/06/14 12:49:02;;;;;;;4.85;2.90;;;22.30;99.90;;;;;;5013036;28;20083;-67
2021/06/14 12:51:38;;;;;;;7.80;3.30;;;22.60;99.90;;;;;;5014717;28;20174;-69
2021/06/14 12:54:05;;;;;;;8.65;4.03;;;22.50;99.90;;;;;;5013560;28;20059;-67
2021/06/14 12:56:32;;;;;;;4.40;2.63;;;22.50;99.90;;;;;;5013189;28;20407;-68
2021/06/14 12:59:00;;;;;;;13.07;3.45;;;22.50;99.90;;;;;;5014656;28;21513;-66
2021/06/14 13:01:27;;;;;;;3.15;2.45;;;22.40;99.90;;;;;;5015370;28;20100;-66
2021/06/14 13:03:54;;;;;;;3.30;2.92;;;22.40;99.90;;;;;;5013159;28;20101;-67